Hunting Creek, North Carolina
Current Conditions -  °F | °C
As of 10:55 PM on Wednesday 22 Oct 2014 (Local Time) from KUKF Reporting Station
Clear Clear  
Wind Chill: 45°   Ceiling: Unl
Heat Index: 48°   Visibility: 10mi
Dew Point: 37°   Wind: 8mph
Humidity: 66%   Direction: 350°N
Pressure: 30.16"   Gusts: 16mph
Location:  36.1997°N, 81.0764°W
Report Text: KUKF 230255Z AUTO 35007G14KT 320V020 10SM CLR 09/03 A3016 RMK AO2
Loading
Personal Weather Stations






























Interactive Weather Map
Tropical Storm Tracking
New forecast layout! Learn more

10-Day Weather Forecast

Advertisements
Track Severe Weather on mobile